<?xml version="1.0" encoding="UTF-8" standalone="no" ?>
<gpx xmlns="http://www.topografix.com/GPX/1/1" xmlns:xsi="http://www.w3.org/2001/XMLSchema-instance" xsi:schemaLocation="http://www.topografix.com/GPX/1/1 http://www.topografix.com/GPX/1/1/gpx.xsd" version="1.1" creator="VisuGPX - https://www.visugpx.com">
  <metadata>
    <name>GTMV etape 5</name>
    <desc><![CDATA[Cinquieme étape de la GTMV du neurod au Lac des perches ]]></desc>
  </metadata>
  <trk>
    <name><![CDATA[etape 5]]></name>
    <trkseg>
      <trkpt lat="47.98394" lon="6.9822">
        <ele>1225</ele>
        <time>2010-08-10T08:52:27Z</time>
      </trkpt>
      <trkpt lat="47.98381" lon="6.98253">
        <ele>1228</ele>
        <time>2010-08-10T08:52:39Z</time>
      </trkpt>
      <trkpt lat="47.9835" lon="6.98286">
        <ele>1228</ele>
        <time>2010-08-10T08:52:57Z</time>
      </trkpt>
      <trkpt lat="47.98325" lon="6.9832">
        <ele>1226</ele>
        <time>2010-08-10T08:53:08Z</time>
      </trkpt>
      <trkpt lat="47.98259" lon="6.98347">
        <ele>1222</ele>
        <time>2010-08-10T08:53:43Z</time>
      </trkpt>
      <trkpt lat="47.98181" lon="6.98383">
        <ele>1214</ele>
        <time>2010-08-10T08:54:03Z</time>
      </trkpt>
      <trkpt lat="47.98118" lon="6.98398">
        <ele>1207</ele>
        <time>2010-08-10T08:54:11Z</time>
      </trkpt>
      <trkpt lat="47.97879" lon="6.98557">
        <ele>1200</ele>
        <time>2010-08-10T08:56:04Z</time>
      </trkpt>
      <trkpt lat="47.97777" lon="6.98646">
        <ele>1212</ele>
        <time>2010-08-10T08:57:11Z</time>
      </trkpt>
      <trkpt lat="47.97716" lon="6.98706">
        <ele>1222</ele>
        <time>2010-08-10T08:58:01Z</time>
      </trkpt>
      <trkpt lat="47.97672" lon="6.98778">
        <ele>1235</ele>
        <time>2010-08-10T08:59:11Z</time>
      </trkpt>
      <trkpt lat="47.97593" lon="6.9889">
        <ele>1249</ele>
        <time>2010-08-10T09:00:36Z</time>
      </trkpt>
      <trkpt lat="47.97577" lon="6.98909">
        <ele>1256</ele>
        <time>2010-08-10T09:01:10Z</time>
      </trkpt>
      <trkpt lat="47.97556" lon="6.98934">
        <ele>1261</ele>
        <time>2010-08-10T09:01:45Z</time>
      </trkpt>
      <trkpt lat="47.97542" lon="6.9895">
        <ele>1265</ele>
        <time>2010-08-10T09:02:09Z</time>
      </trkpt>
      <trkpt lat="47.97531" lon="6.98965">
        <ele>1268</ele>
        <time>2010-08-10T09:02:33Z</time>
      </trkpt>
      <trkpt lat="47.97521" lon="6.98983">
        <ele>1271</ele>
        <time>2010-08-10T09:02:52Z</time>
      </trkpt>
      <trkpt lat="47.97449" lon="6.99063">
        <ele>1271</ele>
        <time>2010-08-10T09:03:52Z</time>
      </trkpt>
      <trkpt lat="47.97345" lon="6.99116">
        <ele>1265</ele>
        <time>2010-08-10T09:04:13Z</time>
      </trkpt>
      <trkpt lat="47.97178" lon="6.99136">
        <ele>1256</ele>
        <time>2010-08-10T09:04:42Z</time>
      </trkpt>
      <trkpt lat="47.97069" lon="6.99196">
        <ele>1246</ele>
        <time>2010-08-10T09:04:56Z</time>
      </trkpt>
      <trkpt lat="47.96987" lon="6.99213">
        <ele>1246</ele>
        <time>2010-08-10T09:05:11Z</time>
      </trkpt>
      <trkpt lat="47.96929" lon="6.99238">
        <ele>1243</ele>
        <time>2010-08-10T09:05:27Z</time>
      </trkpt>
      <trkpt lat="47.96895" lon="6.99293">
        <ele>1236</ele>
        <time>2010-08-10T09:05:50Z</time>
      </trkpt>
      <trkpt lat="47.96879" lon="6.99312">
        <ele>1230</ele>
        <time>2010-08-10T09:06:08Z</time>
      </trkpt>
      <trkpt lat="47.96852" lon="6.99333">
        <ele>1224</ele>
        <time>2010-08-10T09:06:30Z</time>
      </trkpt>
      <trkpt lat="47.96842" lon="6.99376">
        <ele>1217</ele>
        <time>2010-08-10T09:06:41Z</time>
      </trkpt>
      <trkpt lat="47.9681" lon="6.99415">
        <ele>1209</ele>
        <time>2010-08-10T09:06:53Z</time>
      </trkpt>
      <trkpt lat="47.9655" lon="6.99667">
        <ele>1212</ele>
        <time>2010-08-10T09:08:32Z</time>
      </trkpt>
      <trkpt lat="47.96452" lon="6.99722">
        <ele>1222</ele>
        <time>2010-08-10T09:09:31Z</time>
      </trkpt>
      <trkpt lat="47.96364" lon="6.9975">
        <ele>1223</ele>
        <time>2010-08-10T09:10:07Z</time>
      </trkpt>
      <trkpt lat="47.96266" lon="6.99813">
        <ele>1226</ele>
        <time>2010-08-10T09:10:42Z</time>
      </trkpt>
      <trkpt lat="47.96214" lon="6.99944">
        <ele>1225</ele>
        <time>2010-08-10T09:11:15Z</time>
      </trkpt>
      <trkpt lat="47.96196" lon="7.00099">
        <ele>1226</ele>
        <time>2010-08-10T09:11:39Z</time>
      </trkpt>
      <trkpt lat="47.9615" lon="7.00192">
        <ele>1226</ele>
        <time>2010-08-10T09:11:58Z</time>
      </trkpt>
      <trkpt lat="47.9602" lon="7.00345">
        <ele>1222</ele>
        <time>2010-08-10T09:12:28Z</time>
      </trkpt>
      <trkpt lat="47.95938" lon="7.0047">
        <ele>1222</ele>
        <time>2010-08-10T09:12:46Z</time>
      </trkpt>
      <trkpt lat="47.9589" lon="7.00477">
        <ele>1226</ele>
        <time>2010-08-10T09:13:02Z</time>
      </trkpt>
      <trkpt lat="47.95805" lon="7.00504">
        <ele>1221</ele>
        <time>2010-08-10T09:13:33Z</time>
      </trkpt>
      <trkpt lat="47.95696" lon="7.00581">
        <ele>1225</ele>
        <time>2010-08-10T09:13:57Z</time>
      </trkpt>
      <trkpt lat="47.95611" lon="7.00616">
        <ele>1218</ele>
        <time>2010-08-10T09:14:17Z</time>
      </trkpt>
      <trkpt lat="47.95551" lon="7.00672">
        <ele>1217</ele>
        <time>2010-08-10T09:14:34Z</time>
      </trkpt>
      <trkpt lat="47.95506" lon="7.00808">
        <ele>1219</ele>
        <time>2010-08-10T09:14:56Z</time>
      </trkpt>
      <trkpt lat="47.95479" lon="7.00959">
        <ele>1218</ele>
        <time>2010-08-10T09:15:13Z</time>
      </trkpt>
      <trkpt lat="47.95475" lon="7.01008">
        <ele>1217</ele>
        <time>2010-08-10T09:15:18Z</time>
      </trkpt>
      <trkpt lat="47.9547" lon="7.01084">
        <ele>1209</ele>
        <time>2010-08-10T09:15:30Z</time>
      </trkpt>
      <trkpt lat="47.95369" lon="7.01544">
        <ele>1181</ele>
        <time>2010-08-10T09:16:22Z</time>
      </trkpt>
      <trkpt lat="47.95342" lon="7.01614">
        <ele>1185</ele>
        <time>2010-08-10T09:16:43Z</time>
      </trkpt>
      <trkpt lat="47.95327" lon="7.01701">
        <ele>1185</ele>
        <time>2010-08-10T09:17:03Z</time>
      </trkpt>
      <trkpt lat="47.95243" lon="7.01879">
        <ele>1186</ele>
        <time>2010-08-10T09:17:41Z</time>
      </trkpt>
      <trkpt lat="47.95141" lon="7.01966">
        <ele>1194</ele>
        <time>2010-08-10T09:18:16Z</time>
      </trkpt>
      <trkpt lat="47.95029" lon="7.0199">
        <ele>1203</ele>
        <time>2010-08-10T09:19:19Z</time>
      </trkpt>
      <trkpt lat="47.94808" lon="7.02095">
        <ele>1230</ele>
        <time>2010-08-10T09:21:54Z</time>
      </trkpt>
      <trkpt lat="47.94716" lon="7.02182">
        <ele>1246</ele>
        <time>2010-08-10T09:23:09Z</time>
      </trkpt>
      <trkpt lat="47.94647" lon="7.02257">
        <ele>1253</ele>
        <time>2010-08-10T09:24:08Z</time>
      </trkpt>
      <trkpt lat="47.94627" lon="7.02295">
        <ele>1260</ele>
        <time>2010-08-10T09:24:28Z</time>
      </trkpt>
      <trkpt lat="47.94602" lon="7.02311">
        <ele>1265</ele>
        <time>2010-08-10T09:24:43Z</time>
      </trkpt>
      <trkpt lat="47.9453" lon="7.02311">
        <ele>1268</ele>
        <time>2010-08-10T09:25:52Z</time>
      </trkpt>
      <trkpt lat="47.94499" lon="7.02329">
        <ele>1266</ele>
        <time>2010-08-10T09:26:04Z</time>
      </trkpt>
      <trkpt lat="47.94382" lon="7.0233">
        <ele>1256</ele>
        <time>2010-08-10T09:26:24Z</time>
      </trkpt>
      <trkpt lat="47.94313" lon="7.02331">
        <ele>1244</ele>
        <time>2010-08-10T09:26:36Z</time>
      </trkpt>
      <trkpt lat="47.94263" lon="7.02346">
        <ele>1232</ele>
        <time>2010-08-10T09:26:45Z</time>
      </trkpt>
      <trkpt lat="47.94002" lon="7.02325">
        <ele>1229</ele>
        <time>2010-08-10T09:27:56Z</time>
      </trkpt>
      <trkpt lat="47.93942" lon="7.02312">
        <ele>1224</ele>
        <time>2010-08-10T09:28:09Z</time>
      </trkpt>
      <trkpt lat="47.93684" lon="7.02206">
        <ele>1218</ele>
        <time>2010-08-10T09:29:01Z</time>
      </trkpt>
      <trkpt lat="47.93636" lon="7.02177">
        <ele>1218</ele>
        <time>2010-08-10T09:29:17Z</time>
      </trkpt>
      <trkpt lat="47.93544" lon="7.02071">
        <ele>1217</ele>
        <time>2010-08-10T09:29:48Z</time>
      </trkpt>
      <trkpt lat="47.93475" lon="7.0205">
        <ele>1223</ele>
        <time>2010-08-10T09:30:18Z</time>
      </trkpt>
      <trkpt lat="47.93398" lon="7.01987">
        <ele>1223</ele>
        <time>2010-08-10T09:30:52Z</time>
      </trkpt>
      <trkpt lat="47.932" lon="7.01973">
        <ele>1213</ele>
        <time>2010-08-10T09:31:39Z</time>
      </trkpt>
      <trkpt lat="47.93058" lon="7.01938">
        <ele>1225</ele>
        <time>2010-08-10T09:32:46Z</time>
      </trkpt>
      <trkpt lat="47.92917" lon="7.01955">
        <ele>1233</ele>
        <time>2010-08-10T09:33:48Z</time>
      </trkpt>
      <trkpt lat="47.92856" lon="7.01934">
        <ele>1234</ele>
        <time>2010-08-10T09:34:07Z</time>
      </trkpt>
      <trkpt lat="47.92773" lon="7.01951">
        <ele>1232</ele>
        <time>2010-08-10T09:34:26Z</time>
      </trkpt>
      <trkpt lat="47.92764" lon="7.01978">
        <ele>1231</ele>
        <time>2010-08-10T09:34:31Z</time>
      </trkpt>
      <trkpt lat="47.92801" lon="7.02114">
        <ele>1231</ele>
        <time>2010-08-10T09:34:54Z</time>
      </trkpt>
      <trkpt lat="47.92811" lon="7.02197">
        <ele>1230</ele>
        <time>2010-08-10T09:35:10Z</time>
      </trkpt>
      <trkpt lat="47.92804" lon="7.02409">
        <ele>1227</ele>
        <time>2010-08-10T09:35:38Z</time>
      </trkpt>
      <trkpt lat="47.92771" lon="7.02546">
        <ele>1223</ele>
        <time>2010-08-10T09:35:56Z</time>
      </trkpt>
      <trkpt lat="47.92759" lon="7.02583">
        <ele>1219</ele>
        <time>2010-08-10T09:36:05Z</time>
      </trkpt>
      <trkpt lat="47.92728" lon="7.02625">
        <ele>1222</ele>
        <time>2010-08-10T09:36:19Z</time>
      </trkpt>
      <trkpt lat="47.92664" lon="7.02771">
        <ele>1223</ele>
        <time>2010-08-10T09:36:52Z</time>
      </trkpt>
      <trkpt lat="47.92633" lon="7.02818">
        <ele>1222</ele>
        <time>2010-08-10T09:37:04Z</time>
      </trkpt>
      <trkpt lat="47.92557" lon="7.02885">
        <ele>1212</ele>
        <time>2010-08-10T09:37:16Z</time>
      </trkpt>
      <trkpt lat="47.9246" lon="7.0293">
        <ele>1202</ele>
        <time>2010-08-10T09:37:26Z</time>
      </trkpt>
      <trkpt lat="47.92377" lon="7.02996">
        <ele>1196</ele>
        <time>2010-08-10T09:37:48Z</time>
      </trkpt>
      <trkpt lat="47.92369" lon="7.03027">
        <ele>1192</ele>
        <time>2010-08-10T09:38:22Z</time>
      </trkpt>
      <trkpt lat="47.92311" lon="7.03111">
        <ele>1190</ele>
        <time>2010-08-10T09:38:46Z</time>
      </trkpt>
      <trkpt lat="47.92288" lon="7.03295">
        <ele>1184</ele>
        <time>2010-08-10T09:39:19Z</time>
      </trkpt>
      <trkpt lat="47.92269" lon="7.03394">
        <ele>1179</ele>
        <time>2010-08-10T09:39:29Z</time>
      </trkpt>
      <trkpt lat="47.9229" lon="7.03649">
        <ele>1181</ele>
        <time>2010-08-10T09:43:06Z</time>
      </trkpt>
      <trkpt lat="47.92233" lon="7.03785">
        <ele>1187</ele>
        <time>2010-08-10T09:43:49Z</time>
      </trkpt>
      <trkpt lat="47.9214" lon="7.03919">
        <ele>1193</ele>
        <time>2010-08-10T09:44:39Z</time>
      </trkpt>
      <trkpt lat="47.92118" lon="7.03958">
        <ele>1191</ele>
        <time>2010-08-10T09:44:51Z</time>
      </trkpt>
      <trkpt lat="47.92057" lon="7.04001">
        <ele>1194</ele>
        <time>2010-08-10T09:45:14Z</time>
      </trkpt>
      <trkpt lat="47.92049" lon="7.04">
        <ele>1193</ele>
        <time>2010-08-10T09:45:18Z</time>
      </trkpt>
      <trkpt lat="47.91928" lon="7.0409">
        <ele>1193</ele>
        <time>2010-08-10T09:46:29Z</time>
      </trkpt>
      <trkpt lat="47.91772" lon="7.04172">
        <ele>1188</ele>
        <time>2010-08-10T09:47:16Z</time>
      </trkpt>
      <trkpt lat="47.91725" lon="7.04223">
        <ele>1188</ele>
        <time>2010-08-10T09:47:43Z</time>
      </trkpt>
      <trkpt lat="47.91652" lon="7.04341">
        <ele>1206</ele>
        <time>2010-08-10T09:48:42Z</time>
      </trkpt>
      <trkpt lat="47.91523" lon="7.04422">
        <ele>1200</ele>
        <time>2010-08-10T09:49:26Z</time>
      </trkpt>
      <trkpt lat="47.91456" lon="7.04427">
        <ele>1195</ele>
        <time>2010-08-10T09:49:44Z</time>
      </trkpt>
      <trkpt lat="47.91396" lon="7.04466">
        <ele>1191</ele>
        <time>2010-08-10T09:50:02Z</time>
      </trkpt>
      <trkpt lat="47.91306" lon="7.04643">
        <ele>1190</ele>
        <time>2010-08-10T09:50:35Z</time>
      </trkpt>
      <trkpt lat="47.91289" lon="7.04708">
        <ele>1195</ele>
        <time>2010-08-10T09:51:11Z</time>
      </trkpt>
      <trkpt lat="47.91254" lon="7.04829">
        <ele>1181</ele>
        <time>2010-08-10T09:51:27Z</time>
      </trkpt>
      <trkpt lat="47.91071" lon="7.05094">
        <ele>1193</ele>
        <time>2010-08-10T09:54:08Z</time>
      </trkpt>
      <trkpt lat="47.91077" lon="7.05457">
        <ele>1209</ele>
        <time>2010-08-10T09:56:08Z</time>
      </trkpt>
      <trkpt lat="47.91082" lon="7.05498">
        <ele>1211</ele>
        <time>2010-08-10T09:56:24Z</time>
      </trkpt>
      <trkpt lat="47.91079" lon="7.05638">
        <ele>1211</ele>
        <time>2010-08-10T09:56:56Z</time>
      </trkpt>
      <trkpt lat="47.91099" lon="7.05859">
        <ele>1218</ele>
        <time>2010-08-10T09:57:55Z</time>
      </trkpt>
      <trkpt lat="47.91141" lon="7.05936">
        <ele>1214</ele>
        <time>2010-08-10T09:58:08Z</time>
      </trkpt>
      <trkpt lat="47.91155" lon="7.06023">
        <ele>1206</ele>
        <time>2010-08-10T09:58:39Z</time>
      </trkpt>
      <trkpt lat="47.91101" lon="7.06337">
        <ele>1222</ele>
        <time>2010-08-10T10:00:02Z</time>
      </trkpt>
      <trkpt lat="47.91085" lon="7.06397">
        <ele>1222</ele>
        <time>2010-08-10T10:00:14Z</time>
      </trkpt>
      <trkpt lat="47.91067" lon="7.06428">
        <ele>1222</ele>
        <time>2010-08-10T10:00:21Z</time>
      </trkpt>
      <trkpt lat="47.9106" lon="7.06474">
        <ele>1216</ele>
        <time>2010-08-10T10:00:31Z</time>
      </trkpt>
      <trkpt lat="47.90983" lon="7.06618">
        <ele>1206</ele>
        <time>2010-08-10T10:01:09Z</time>
      </trkpt>
      <trkpt lat="47.90943" lon="7.06673">
        <ele>1199</ele>
        <time>2010-08-10T10:01:59Z</time>
      </trkpt>
      <trkpt lat="47.90849" lon="7.0664">
        <ele>1180</ele>
        <time>2010-08-10T10:03:13Z</time>
      </trkpt>
      <trkpt lat="47.90651" lon="7.06617">
        <ele>1184</ele>
        <time>2010-08-10T10:03:57Z</time>
      </trkpt>
      <trkpt lat="47.90491" lon="7.06659">
        <ele>1192</ele>
        <time>2010-08-10T10:04:50Z</time>
      </trkpt>
      <trkpt lat="47.90473" lon="7.06672">
        <ele>1191</ele>
        <time>2010-08-10T10:04:59Z</time>
      </trkpt>
      <trkpt lat="47.90403" lon="7.0686">
        <ele>1207</ele>
        <time>2010-08-10T10:05:54Z</time>
      </trkpt>
      <trkpt lat="47.90409" lon="7.0693">
        <ele>1205</ele>
        <time>2010-08-10T10:06:15Z</time>
      </trkpt>
      <trkpt lat="47.90398" lon="7.06959">
        <ele>1209</ele>
        <time>2010-08-10T10:06:29Z</time>
      </trkpt>
      <trkpt lat="47.90358" lon="7.07175">
        <ele>1226</ele>
        <time>2010-08-10T10:07:55Z</time>
      </trkpt>
      <trkpt lat="47.90332" lon="7.07359">
        <ele>1238</ele>
        <time>2010-08-10T10:09:12Z</time>
      </trkpt>
      <trkpt lat="47.90281" lon="7.07502">
        <ele>1241</ele>
        <time>2010-08-10T10:09:50Z</time>
      </trkpt>
      <trkpt lat="47.90245" lon="7.07551">
        <ele>1238</ele>
        <time>2010-08-10T10:10:04Z</time>
      </trkpt>
      <trkpt lat="47.9022" lon="7.0755">
        <ele>1238</ele>
        <time>2010-08-10T10:10:09Z</time>
      </trkpt>
      <trkpt lat="47.9014" lon="7.07499">
        <ele>1236</ele>
        <time>2010-08-10T10:10:21Z</time>
      </trkpt>
      <trkpt lat="47.90003" lon="7.07468">
        <ele>1235</ele>
        <time>2010-08-10T10:10:39Z</time>
      </trkpt>
      <trkpt lat="47.89926" lon="7.07376">
        <ele>1235</ele>
        <time>2010-08-10T10:10:54Z</time>
      </trkpt>
      <trkpt lat="47.89863" lon="7.07348">
        <ele>1233</ele>
        <time>2010-08-10T10:11:09Z</time>
      </trkpt>
      <trkpt lat="47.89831" lon="7.0737">
        <ele>1233</ele>
        <time>2010-08-10T10:11:22Z</time>
      </trkpt>
      <trkpt lat="47.89807" lon="7.07418">
        <ele>1233</ele>
        <time>2010-08-10T10:11:32Z</time>
      </trkpt>
      <trkpt lat="47.89809" lon="7.07589">
        <ele>1229</ele>
        <time>2010-08-10T10:11:57Z</time>
      </trkpt>
      <trkpt lat="47.89819" lon="7.07654">
        <ele>1223</ele>
        <time>2010-08-10T10:12:11Z</time>
      </trkpt>
      <trkpt lat="47.89924" lon="7.07892">
        <ele>1201</ele>
        <time>2010-08-10T10:12:42Z</time>
      </trkpt>
      <trkpt lat="47.89957" lon="7.08026">
        <ele>1197</ele>
        <time>2010-08-10T10:12:55Z</time>
      </trkpt>
      <trkpt lat="47.89996" lon="7.08227">
        <ele>1185</ele>
        <time>2010-08-10T10:13:13Z</time>
      </trkpt>
      <trkpt lat="47.9007" lon="7.08452">
        <ele>1177</ele>
        <time>2010-08-10T10:13:32Z</time>
      </trkpt>
      <trkpt lat="47.90124" lon="7.08533">
        <ele>1173</ele>
        <time>2010-08-10T10:13:39Z</time>
      </trkpt>
      <trkpt lat="47.90389" lon="7.08755">
        <ele>1201</ele>
        <time>2010-08-10T10:15:59Z</time>
      </trkpt>
      <trkpt lat="47.90417" lon="7.0882">
        <ele>1211</ele>
        <time>2010-08-10T10:16:36Z</time>
      </trkpt>
      <trkpt lat="47.90457" lon="7.08953">
        <ele>1224</ele>
        <time>2010-08-10T10:18:00Z</time>
      </trkpt>
      <trkpt lat="47.90489" lon="7.09005">
        <ele>1229</ele>
        <time>2010-08-10T10:18:31Z</time>
      </trkpt>
      <trkpt lat="47.90501" lon="7.09025">
        <ele>1230</ele>
        <time>2010-08-10T10:18:43Z</time>
      </trkpt>
      <trkpt lat="47.90492" lon="7.0905">
        <ele>1234</ele>
        <time>2010-08-10T10:23:09Z</time>
      </trkpt>
      <trkpt lat="47.90457" lon="7.09104">
        <ele>1236</ele>
        <time>2010-08-10T10:23:38Z</time>
      </trkpt>
      <trkpt lat="47.90391" lon="7.09296">
        <ele>1264</ele>
        <time>2010-08-10T10:26:24Z</time>
      </trkpt>
      <trkpt lat="47.90399" lon="7.09299">
        <ele>1263</ele>
        <time>2010-08-10T10:26:36Z</time>
      </trkpt>
      <trkpt lat="47.90295" lon="7.09285">
        <ele>1278</ele>
        <time>2010-08-10T10:28:08Z</time>
      </trkpt>
      <trkpt lat="47.90221" lon="7.09317">
        <ele>1296</ele>
        <time>2010-08-10T10:29:24Z</time>
      </trkpt>
      <trkpt lat="47.90194" lon="7.09344">
        <ele>1295</ele>
        <time>2010-08-10T10:29:46Z</time>
      </trkpt>
      <trkpt lat="47.90182" lon="7.09397">
        <ele>1296</ele>
        <time>2010-08-10T10:30:08Z</time>
      </trkpt>
      <trkpt lat="47.90189" lon="7.09449">
        <ele>1302</ele>
        <time>2010-08-10T10:30:49Z</time>
      </trkpt>
      <trkpt lat="47.90176" lon="7.09476">
        <ele>1305</ele>
        <time>2010-08-10T10:31:07Z</time>
      </trkpt>
      <trkpt lat="47.90029" lon="7.09608">
        <ele>1329</ele>
        <time>2010-08-10T10:34:47Z</time>
      </trkpt>
      <trkpt lat="47.89966" lon="7.09743">
        <ele>1349</ele>
        <time>2010-08-10T10:36:59Z</time>
      </trkpt>
      <trkpt lat="47.89949" lon="7.09769">
        <ele>1353</ele>
        <time>2010-08-10T10:37:23Z</time>
      </trkpt>
      <trkpt lat="47.89902" lon="7.09919">
        <ele>1373</ele>
        <time>2010-08-10T10:39:44Z</time>
      </trkpt>
      <trkpt lat="47.89918" lon="7.09941">
        <ele>1382</ele>
        <time>2010-08-10T10:40:17Z</time>
      </trkpt>
      <trkpt lat="47.89948" lon="7.09974">
        <ele>1388</ele>
        <time>2010-08-10T10:40:59Z</time>
      </trkpt>
      <trkpt lat="47.89957" lon="7.0999">
        <ele>1391</ele>
        <time>2010-08-10T10:41:16Z</time>
      </trkpt>
      <trkpt lat="47.89984" lon="7.09995">
        <ele>1396</ele>
        <time>2010-08-10T10:41:53Z</time>
      </trkpt>
      <trkpt lat="47.90023" lon="7.09969">
        <ele>1401</ele>
        <time>2010-08-10T10:42:49Z</time>
      </trkpt>
      <trkpt lat="47.90035" lon="7.09927">
        <ele>1410</ele>
        <time>2010-08-10T10:43:33Z</time>
      </trkpt>
      <trkpt lat="47.9007" lon="7.09947">
        <ele>1408</ele>
        <time>2010-08-10T10:53:52Z</time>
      </trkpt>
      <trkpt lat="47.90159" lon="7.10001">
        <ele>1396</ele>
        <time>2010-08-10T10:54:16Z</time>
      </trkpt>
      <trkpt lat="47.90261" lon="7.10113">
        <ele>1385</ele>
        <time>2010-08-10T10:54:57Z</time>
      </trkpt>
      <trkpt lat="47.90269" lon="7.10155">
        <ele>1379</ele>
        <time>2010-08-10T10:55:04Z</time>
      </trkpt>
      <trkpt lat="47.90312" lon="7.10213">
        <ele>1368</ele>
        <time>2010-08-10T10:55:13Z</time>
      </trkpt>
      <trkpt lat="47.90417" lon="7.10232">
        <ele>1347</ele>
        <time>2010-08-10T10:55:44Z</time>
      </trkpt>
      <trkpt lat="47.90435" lon="7.10272">
        <ele>1342</ele>
        <time>2010-08-10T10:55:54Z</time>
      </trkpt>
      <trkpt lat="47.90442" lon="7.10347">
        <ele>1337</ele>
        <time>2010-08-10T10:56:19Z</time>
      </trkpt>
      <trkpt lat="47.90505" lon="7.10374">
        <ele>1336</ele>
        <time>2010-08-10T10:56:52Z</time>
      </trkpt>
      <trkpt lat="47.90524" lon="7.10415">
        <ele>1336</ele>
        <time>2010-08-10T10:57:18Z</time>
      </trkpt>
      <trkpt lat="47.90559" lon="7.10443">
        <ele>1335</ele>
        <time>2010-08-10T10:57:31Z</time>
      </trkpt>
      <trkpt lat="47.90632" lon="7.10477">
        <ele>1329</ele>
        <time>2010-08-10T10:57:47Z</time>
      </trkpt>
      <trkpt lat="47.90651" lon="7.10459">
        <ele>1328</ele>
        <time>2010-08-10T10:58:28Z</time>
      </trkpt>
      <trkpt lat="47.90709" lon="7.10409">
        <ele>1316</ele>
        <time>2010-08-10T10:58:53Z</time>
      </trkpt>
      <trkpt lat="47.90874" lon="7.10486">
        <ele>1301</ele>
        <time>2010-08-10T10:59:21Z</time>
      </trkpt>
      <trkpt lat="47.90889" lon="7.1049">
        <ele>1300</ele>
        <time>2010-08-10T10:59:23Z</time>
      </trkpt>
      <trkpt lat="47.91013" lon="7.10483">
        <ele>1281</ele>
        <time>2010-08-10T10:59:42Z</time>
      </trkpt>
      <trkpt lat="47.9116" lon="7.1055">
        <ele>1253</ele>
        <time>2010-08-10T11:00:01Z</time>
      </trkpt>
      <trkpt lat="47.91171" lon="7.10599">
        <ele>1248</ele>
        <time>2010-08-10T11:00:09Z</time>
      </trkpt>
      <trkpt lat="47.91116" lon="7.10802">
        <ele>1230</ele>
        <time>2010-08-10T11:00:27Z</time>
      </trkpt>
      <trkpt lat="47.91085" lon="7.10984">
        <ele>1224</ele>
        <time>2010-08-10T11:00:40Z</time>
      </trkpt>
      <trkpt lat="47.91091" lon="7.11196">
        <ele>1214</ele>
        <time>2010-08-10T11:00:59Z</time>
      </trkpt>
      <trkpt lat="47.91105" lon="7.11227">
        <ele>1212</ele>
        <time>2010-08-10T11:01:13Z</time>
      </trkpt>
      <trkpt lat="47.91115" lon="7.11224">
        <ele>1214</ele>
        <time>2010-08-10T11:01:44Z</time>
      </trkpt>
      <trkpt lat="47.91104" lon="7.1121">
        <ele>1217</ele>
        <time>2010-08-10T11:02:59Z</time>
      </trkpt>
      <trkpt lat="47.91088" lon="7.11237">
        <ele>1220</ele>
        <time>2010-08-10T11:03:20Z</time>
      </trkpt>
      <trkpt lat="47.91072" lon="7.11269">
        <ele>1219</ele>
        <time>2010-08-10T11:03:46Z</time>
      </trkpt>
      <trkpt lat="47.9102" lon="7.11286">
        <ele>1236</ele>
        <time>2010-08-10T11:04:51Z</time>
      </trkpt>
      <trkpt lat="47.90995" lon="7.11297">
        <ele>1239</ele>
        <time>2010-08-10T11:05:09Z</time>
      </trkpt>
      <trkpt lat="47.90975" lon="7.11298">
        <ele>1241</ele>
        <time>2010-08-10T11:05:20Z</time>
      </trkpt>
      <trkpt lat="47.90969" lon="7.11299">
        <ele>1240</ele>
        <time>2010-08-10T11:05:22Z</time>
      </trkpt>
      <trkpt lat="47.90907" lon="7.11295">
        <ele>1234</ele>
        <time>2010-08-10T11:05:55Z</time>
      </trkpt>
      <trkpt lat="47.90674" lon="7.11244">
        <ele>1224</ele>
        <time>2010-08-10T11:06:30Z</time>
      </trkpt>
      <trkpt lat="47.90391" lon="7.11087">
        <ele>1238</ele>
        <time>2010-08-10T11:07:34Z</time>
      </trkpt>
      <trkpt lat="47.90364" lon="7.1108">
        <ele>1234</ele>
        <time>2010-08-10T11:07:39Z</time>
      </trkpt>
      <trkpt lat="47.90164" lon="7.11091">
        <ele>1219</ele>
        <time>2010-08-10T11:08:04Z</time>
      </trkpt>
      <trkpt lat="47.90098" lon="7.1108">
        <ele>1212</ele>
        <time>2010-08-10T11:08:12Z</time>
      </trkpt>
      <trkpt lat="47.90059" lon="7.111">
        <ele>1205</ele>
        <time>2010-08-10T11:08:18Z</time>
      </trkpt>
      <trkpt lat="47.8991" lon="7.11064">
        <ele>1196</ele>
        <time>2010-08-10T11:08:38Z</time>
      </trkpt>
      <trkpt lat="47.89848" lon="7.11055">
        <ele>1187</ele>
        <time>2010-08-10T11:08:47Z</time>
      </trkpt>
      <trkpt lat="47.89716" lon="7.11097">
        <ele>1173</ele>
        <time>2010-08-10T11:09:06Z</time>
      </trkpt>
      <trkpt lat="47.89713" lon="7.11092">
        <ele>1168</ele>
        <time>2010-08-10T11:09:45Z</time>
      </trkpt>
      <trkpt lat="47.89639" lon="7.11154">
        <ele>1150</ele>
        <time>2010-08-10T11:10:12Z</time>
      </trkpt>
      <trkpt lat="47.89556" lon="7.11323">
        <ele>1138</ele>
        <time>2010-08-10T11:10:25Z</time>
      </trkpt>
      <trkpt lat="47.89486" lon="7.11524">
        <ele>1133</ele>
        <time>2010-08-10T11:10:46Z</time>
      </trkpt>
      <trkpt lat="47.89434" lon="7.11583">
        <ele>1127</ele>
        <time>2010-08-10T11:10:59Z</time>
      </trkpt>
      <trkpt lat="47.89264" lon="7.11594">
        <ele>1110</ele>
        <time>2010-08-10T11:11:44Z</time>
      </trkpt>
      <trkpt lat="47.89206" lon="7.1163">
        <ele>1108</ele>
        <time>2010-08-10T11:12:01Z</time>
      </trkpt>
      <trkpt lat="47.89204" lon="7.11645">
        <ele>1107</ele>
        <time>2010-08-10T11:12:11Z</time>
      </trkpt>
      <trkpt lat="47.8914" lon="7.11822">
        <ele>1079</ele>
        <time>2010-08-10T11:12:45Z</time>
      </trkpt>
      <trkpt lat="47.89085" lon="7.11902">
        <ele>1073</ele>
        <time>2010-08-10T11:13:01Z</time>
      </trkpt>
      <trkpt lat="47.89063" lon="7.11942">
        <ele>1067</ele>
        <time>2010-08-10T11:13:36Z</time>
      </trkpt>
      <trkpt lat="47.89013" lon="7.1198">
        <ele>1061</ele>
        <time>2010-08-10T11:13:51Z</time>
      </trkpt>
      <trkpt lat="47.88997" lon="7.12018">
        <ele>1054</ele>
        <time>2010-08-10T11:14:04Z</time>
      </trkpt>
      <trkpt lat="47.88956" lon="7.1206">
        <ele>1047</ele>
        <time>2010-08-10T11:14:16Z</time>
      </trkpt>
      <trkpt lat="47.88917" lon="7.12089">
        <ele>1038</ele>
        <time>2010-08-10T11:14:26Z</time>
      </trkpt>
      <trkpt lat="47.88889" lon="7.1213">
        <ele>1032</ele>
        <time>2010-08-10T11:14:35Z</time>
      </trkpt>
      <trkpt lat="47.88879" lon="7.12147">
        <ele>1029</ele>
        <time>2010-08-10T11:14:38Z</time>
      </trkpt>
      <trkpt lat="47.88785" lon="7.12434">
        <ele>1008</ele>
        <time>2010-08-10T11:15:02Z</time>
      </trkpt>
      <trkpt lat="47.8875" lon="7.12477">
        <ele>1002</ele>
        <time>2010-08-10T11:15:10Z</time>
      </trkpt>
      <trkpt lat="47.88774" lon="7.12553">
        <ele>996</ele>
        <time>2010-08-10T11:15:54Z</time>
      </trkpt>
      <trkpt lat="47.88823" lon="7.12573">
        <ele>988</ele>
        <time>2010-08-10T11:16:30Z</time>
      </trkpt>
      <trkpt lat="47.88805" lon="7.1261">
        <ele>980</ele>
        <time>2010-08-10T11:16:40Z</time>
      </trkpt>
      <trkpt lat="47.88741" lon="7.12664">
        <ele>970</ele>
        <time>2010-08-10T11:16:50Z</time>
      </trkpt>
      <trkpt lat="47.88676" lon="7.12809">
        <ele>960</ele>
        <time>2010-08-10T11:17:06Z</time>
      </trkpt>
      <trkpt lat="47.88552" lon="7.12859">
        <ele>956</ele>
        <time>2010-08-10T11:18:05Z</time>
      </trkpt>
      <trkpt lat="47.88493" lon="7.12885">
        <ele>950</ele>
        <time>2010-08-10T11:18:26Z</time>
      </trkpt>
      <trkpt lat="47.88415" lon="7.12952">
        <ele>945</ele>
        <time>2010-08-10T11:18:41Z</time>
      </trkpt>
      <trkpt lat="47.88351" lon="7.1294">
        <ele>940</ele>
        <time>2010-08-10T11:18:50Z</time>
      </trkpt>
      <trkpt lat="47.88188" lon="7.12855">
        <ele>926</ele>
        <time>2010-08-10T11:19:10Z</time>
      </trkpt>
      <trkpt lat="47.88152" lon="7.12832">
        <ele>921</ele>
        <time>2010-08-10T11:19:15Z</time>
      </trkpt>
      <trkpt lat="47.88055" lon="7.12898">
        <ele>908</ele>
        <time>2010-08-10T11:19:34Z</time>
      </trkpt>
      <trkpt lat="47.88005" lon="7.12876">
        <ele>904</ele>
        <time>2010-08-10T11:19:44Z</time>
      </trkpt>
      <trkpt lat="47.8798" lon="7.12865">
        <ele>900</ele>
        <time>2010-08-10T11:19:51Z</time>
      </trkpt>
      <trkpt lat="47.87816" lon="7.1275">
        <ele>874</ele>
        <time>2010-08-10T11:20:24Z</time>
      </trkpt>
      <trkpt lat="47.87716" lon="7.12729">
        <ele>863</ele>
        <time>2010-08-10T11:20:39Z</time>
      </trkpt>
      <trkpt lat="47.87672" lon="7.12756">
        <ele>852</ele>
        <time>2010-08-10T11:20:53Z</time>
      </trkpt>
      <trkpt lat="47.87615" lon="7.12716">
        <ele>844</ele>
        <time>2010-08-10T11:21:07Z</time>
      </trkpt>
      <trkpt lat="47.87582" lon="7.12711">
        <ele>836</ele>
        <time>2010-08-10T11:21:15Z</time>
      </trkpt>
      <trkpt lat="47.87542" lon="7.12743">
        <ele>828</ele>
        <time>2010-08-10T11:21:39Z</time>
      </trkpt>
      <trkpt lat="47.87524" lon="7.12703">
        <ele>822</ele>
        <time>2010-08-10T11:22:06Z</time>
      </trkpt>
      <trkpt lat="47.87512" lon="7.12721">
        <ele>824</ele>
        <time>2010-08-10T11:22:27Z</time>
      </trkpt>
      <trkpt lat="47.87425" lon="7.12676">
        <ele>834</ele>
        <time>2010-08-10T11:23:15Z</time>
      </trkpt>
      <trkpt lat="47.87351" lon="7.1264">
        <ele>841</ele>
        <time>2010-08-10T11:23:49Z</time>
      </trkpt>
      <trkpt lat="47.87318" lon="7.12662">
        <ele>845</ele>
        <time>2010-08-10T11:24:08Z</time>
      </trkpt>
      <trkpt lat="47.87313" lon="7.12711">
        <ele>851</ele>
        <time>2010-08-10T11:24:28Z</time>
      </trkpt>
      <trkpt lat="47.87304" lon="7.12779">
        <ele>855</ele>
        <time>2010-08-10T11:24:56Z</time>
      </trkpt>
      <trkpt lat="47.87284" lon="7.12756">
        <ele>856</ele>
        <time>2010-08-10T11:25:09Z</time>
      </trkpt>
      <trkpt lat="47.87223" lon="7.12742">
        <ele>860</ele>
        <time>2010-08-10T11:25:38Z</time>
      </trkpt>
      <trkpt lat="47.87181" lon="7.127">
        <ele>864</ele>
        <time>2010-08-10T11:26:07Z</time>
      </trkpt>
      <trkpt lat="47.87137" lon="7.12608">
        <ele>873</ele>
        <time>2010-08-10T11:27:12Z</time>
      </trkpt>
      <trkpt lat="47.87063" lon="7.12496">
        <ele>899</ele>
        <time>2010-08-10T11:29:20Z</time>
      </trkpt>
      <trkpt lat="47.87027" lon="7.12454">
        <ele>905</ele>
        <time>2010-08-10T11:31:49Z</time>
      </trkpt>
      <trkpt lat="47.87025" lon="7.12408">
        <ele>901</ele>
        <time>2010-08-10T11:32:00Z</time>
      </trkpt>
      <trkpt lat="47.86999" lon="7.1236">
        <ele>897</ele>
        <time>2010-08-10T11:32:11Z</time>
      </trkpt>
      <trkpt lat="47.86925" lon="7.12274">
        <ele>882</ele>
        <time>2010-08-10T11:32:30Z</time>
      </trkpt>
      <trkpt lat="47.8689" lon="7.12264">
        <ele>873</ele>
        <time>2010-08-10T11:32:37Z</time>
      </trkpt>
      <trkpt lat="47.86833" lon="7.12284">
        <ele>859</ele>
        <time>2010-08-10T11:32:52Z</time>
      </trkpt>
      <trkpt lat="47.8669" lon="7.12161">
        <ele>862</ele>
        <time>2010-08-10T11:33:40Z</time>
      </trkpt>
      <trkpt lat="47.86669" lon="7.12199">
        <ele>863</ele>
        <time>2010-08-10T11:33:51Z</time>
      </trkpt>
      <trkpt lat="47.86685" lon="7.12283">
        <ele>868</ele>
        <time>2010-08-10T11:34:10Z</time>
      </trkpt>
      <trkpt lat="47.86714" lon="7.12339">
        <ele>869</ele>
        <time>2010-08-10T11:34:28Z</time>
      </trkpt>
      <trkpt lat="47.86706" lon="7.12369">
        <ele>872</ele>
        <time>2010-08-10T11:35:15Z</time>
      </trkpt>
      <trkpt lat="47.86604" lon="7.12415">
        <ele>880</ele>
        <time>2010-08-10T11:35:52Z</time>
      </trkpt>
      <trkpt lat="47.86451" lon="7.12416">
        <ele>894</ele>
        <time>2010-08-10T11:36:58Z</time>
      </trkpt>
      <trkpt lat="47.86353" lon="7.12318">
        <ele>904</ele>
        <time>2010-08-10T11:37:50Z</time>
      </trkpt>
      <trkpt lat="47.86282" lon="7.12301">
        <ele>911</ele>
        <time>2010-08-10T11:38:23Z</time>
      </trkpt>
      <trkpt lat="47.86255" lon="7.12284">
        <ele>911</ele>
        <time>2010-08-10T11:38:36Z</time>
      </trkpt>
      <trkpt lat="47.86207" lon="7.12224">
        <ele>912</ele>
        <time>2010-08-10T11:38:58Z</time>
      </trkpt>
      <trkpt lat="47.86116" lon="7.12087">
        <ele>916</ele>
        <time>2010-08-10T11:39:28Z</time>
      </trkpt>
      <trkpt lat="47.86081" lon="7.11971">
        <ele>923</ele>
        <time>2010-08-10T11:39:46Z</time>
      </trkpt>
      <trkpt lat="47.86069" lon="7.11904">
        <ele>923</ele>
        <time>2010-08-10T11:39:53Z</time>
      </trkpt>
      <trkpt lat="47.86044" lon="7.11872">
        <ele>923</ele>
        <time>2010-08-10T11:39:58Z</time>
      </trkpt>
      <trkpt lat="47.85984" lon="7.11878">
        <ele>915</ele>
        <time>2010-08-10T11:40:12Z</time>
      </trkpt>
      <trkpt lat="47.8589" lon="7.12081">
        <ele>899</ele>
        <time>2010-08-10T11:40:34Z</time>
      </trkpt>
      <trkpt lat="47.85797" lon="7.1222">
        <ele>882</ele>
        <time>2010-08-10T11:40:51Z</time>
      </trkpt>
      <trkpt lat="47.85785" lon="7.12335">
        <ele>873</ele>
        <time>2010-08-10T11:41:01Z</time>
      </trkpt>
      <trkpt lat="47.85752" lon="7.12342">
        <ele>868</ele>
        <time>2010-08-10T11:41:07Z</time>
      </trkpt>
      <trkpt lat="47.85686" lon="7.12299">
        <ele>860</ele>
        <time>2010-08-10T11:41:16Z</time>
      </trkpt>
      <trkpt lat="47.8562" lon="7.12169">
        <ele>850</ele>
        <time>2010-08-10T11:41:27Z</time>
      </trkpt>
      <trkpt lat="47.85573" lon="7.12032">
        <ele>841</ele>
        <time>2010-08-10T11:41:45Z</time>
      </trkpt>
      <trkpt lat="47.85514" lon="7.12037">
        <ele>834</ele>
        <time>2010-08-10T11:42:12Z</time>
      </trkpt>
      <trkpt lat="47.85494" lon="7.11995">
        <ele>838</ele>
        <time>2010-08-10T11:42:36Z</time>
      </trkpt>
      <trkpt lat="47.85445" lon="7.11955">
        <ele>848</ele>
        <time>2010-08-10T11:43:05Z</time>
      </trkpt>
      <trkpt lat="47.85384" lon="7.11878">
        <ele>861</ele>
        <time>2010-08-10T11:43:54Z</time>
      </trkpt>
      <trkpt lat="47.85367" lon="7.11815">
        <ele>862</ele>
        <time>2010-08-10T11:44:24Z</time>
      </trkpt>
      <trkpt lat="47.85334" lon="7.11794">
        <ele>865</ele>
        <time>2010-08-10T11:44:43Z</time>
      </trkpt>
      <trkpt lat="47.85228" lon="7.11858">
        <ele>877</ele>
        <time>2010-08-10T11:45:57Z</time>
      </trkpt>
      <trkpt lat="47.85189" lon="7.1186">
        <ele>876</ele>
        <time>2010-08-10T11:46:25Z</time>
      </trkpt>
      <trkpt lat="47.8516" lon="7.11872">
        <ele>872</ele>
        <time>2010-08-10T11:46:48Z</time>
      </trkpt>
      <trkpt lat="47.8503" lon="7.11853">
        <ele>897</ele>
        <time>2010-08-10T11:47:53Z</time>
      </trkpt>
      <trkpt lat="47.85004" lon="7.11866">
        <ele>898</ele>
        <time>2010-08-10T11:48:06Z</time>
      </trkpt>
      <trkpt lat="47.84988" lon="7.11864">
        <ele>896</ele>
        <time>2010-08-10T11:48:16Z</time>
      </trkpt>
      <trkpt lat="47.84916" lon="7.11778">
        <ele>915</ele>
        <time>2010-08-10T11:48:51Z</time>
      </trkpt>
      <trkpt lat="47.84907" lon="7.11767">
        <ele>916</ele>
        <time>2010-08-10T11:48:55Z</time>
      </trkpt>
      <trkpt lat="47.84878" lon="7.11763">
        <ele>915</ele>
        <time>2010-08-10T11:49:05Z</time>
      </trkpt>
      <trkpt lat="47.8487" lon="7.11768">
        <ele>912</ele>
        <time>2010-08-10T11:49:09Z</time>
      </trkpt>
      <trkpt lat="47.84864" lon="7.11762">
        <ele>911</ele>
        <time>2010-08-10T11:49:19Z</time>
      </trkpt>
      <trkpt lat="47.84825" lon="7.11773">
        <ele>909</ele>
        <time>2010-08-10T11:54:04Z</time>
      </trkpt>
      <trkpt lat="47.84752" lon="7.11726">
        <ele>910</ele>
        <time>2010-08-10T11:54:30Z</time>
      </trkpt>
      <trkpt lat="47.84697" lon="7.11686">
        <ele>906</ele>
        <time>2010-08-10T11:54:39Z</time>
      </trkpt>
      <trkpt lat="47.84636" lon="7.11679">
        <ele>903</ele>
        <time>2010-08-10T11:54:46Z</time>
      </trkpt>
      <trkpt lat="47.84387" lon="7.11687">
        <ele>886</ele>
        <time>2010-08-10T11:55:35Z</time>
      </trkpt>
      <trkpt lat="47.8433" lon="7.11639">
        <ele>888</ele>
        <time>2010-08-10T11:55:45Z</time>
      </trkpt>
      <trkpt lat="47.84208" lon="7.1153">
        <ele>885</ele>
        <time>2010-08-10T11:56:08Z</time>
      </trkpt>
      <trkpt lat="47.84135" lon="7.11451">
        <ele>880</ele>
        <time>2010-08-10T11:56:18Z</time>
      </trkpt>
      <trkpt lat="47.84111" lon="7.11425">
        <ele>875</ele>
        <time>2010-08-10T11:56:24Z</time>
      </trkpt>
      <trkpt lat="47.84083" lon="7.11435">
        <ele>860</ele>
        <time>2010-08-10T11:56:40Z</time>
      </trkpt>
      <trkpt lat="47.8405" lon="7.11391">
        <ele>857</ele>
        <time>2010-08-10T11:56:48Z</time>
      </trkpt>
      <trkpt lat="47.8402" lon="7.11281">
        <ele>854</ele>
        <time>2010-08-10T11:57:02Z</time>
      </trkpt>
      <trkpt lat="47.83989" lon="7.11234">
        <ele>849</ele>
        <time>2010-08-10T11:57:07Z</time>
      </trkpt>
      <trkpt lat="47.83975" lon="7.11163">
        <ele>845</ele>
        <time>2010-08-10T11:57:14Z</time>
      </trkpt>
      <trkpt lat="47.83916" lon="7.11016">
        <ele>834</ele>
        <time>2010-08-10T11:57:28Z</time>
      </trkpt>
      <trkpt lat="47.83871" lon="7.10969">
        <ele>825</ele>
        <time>2010-08-10T11:57:38Z</time>
      </trkpt>
      <trkpt lat="47.83793" lon="7.10851">
        <ele>801</ele>
        <time>2010-08-10T11:57:52Z</time>
      </trkpt>
      <trkpt lat="47.83761" lon="7.10842">
        <ele>791</ele>
        <time>2010-08-10T11:58:00Z</time>
      </trkpt>
      <trkpt lat="47.83745" lon="7.10811">
        <ele>785</ele>
        <time>2010-08-10T11:58:11Z</time>
      </trkpt>
      <trkpt lat="47.83722" lon="7.10503">
        <ele>779</ele>
        <time>2010-08-10T11:58:55Z</time>
      </trkpt>
      <trkpt lat="47.83661" lon="7.10423">
        <ele>776</ele>
        <time>2010-08-10T11:59:15Z</time>
      </trkpt>
      <trkpt lat="47.83603" lon="7.10406">
        <ele>772</ele>
        <time>2010-08-10T11:59:25Z</time>
      </trkpt>
      <trkpt lat="47.83572" lon="7.1037">
        <ele>772</ele>
        <time>2010-08-10T11:59:33Z</time>
      </trkpt>
      <trkpt lat="47.83559" lon="7.10348">
        <ele>769</ele>
        <time>2010-08-10T11:59:40Z</time>
      </trkpt>
      <trkpt lat="47.8356" lon="7.10241">
        <ele>767</ele>
        <time>2010-08-10T11:59:58Z</time>
      </trkpt>
      <trkpt lat="47.83513" lon="7.1015">
        <ele>755</ele>
        <time>2010-08-10T12:00:15Z</time>
      </trkpt>
      <trkpt lat="47.83506" lon="7.1015">
        <ele>751</ele>
        <time>2010-08-10T12:01:08Z</time>
      </trkpt>
      <trkpt lat="47.83475" lon="7.10055">
        <ele>739</ele>
        <time>2010-08-10T12:01:29Z</time>
      </trkpt>
      <trkpt lat="47.83435" lon="7.10059">
        <ele>734</ele>
        <time>2010-08-10T12:01:38Z</time>
      </trkpt>
      <trkpt lat="47.83322" lon="7.1015">
        <ele>705</ele>
        <time>2010-08-10T12:02:06Z</time>
      </trkpt>
      <trkpt lat="47.83243" lon="7.10151">
        <ele>696</ele>
        <time>2010-08-10T12:02:25Z</time>
      </trkpt>
      <trkpt lat="47.83214" lon="7.10126">
        <ele>692</ele>
        <time>2010-08-10T12:02:33Z</time>
      </trkpt>
      <trkpt lat="47.83173" lon="7.10059">
        <ele>688</ele>
        <time>2010-08-10T12:02:44Z</time>
      </trkpt>
      <trkpt lat="47.83164" lon="7.1004">
        <ele>687</ele>
        <time>2010-08-10T12:02:48Z</time>
      </trkpt>
      <trkpt lat="47.83119" lon="7.10026">
        <ele>684</ele>
        <time>2010-08-10T12:03:01Z</time>
      </trkpt>
      <trkpt lat="47.83045" lon="7.10086">
        <ele>676</ele>
        <time>2010-08-10T12:03:28Z</time>
      </trkpt>
      <trkpt lat="47.82944" lon="7.1014">
        <ele>658</ele>
        <time>2010-08-10T12:03:46Z</time>
      </trkpt>
      <trkpt lat="47.82871" lon="7.10173">
        <ele>642</ele>
        <time>2010-08-10T12:04:04Z</time>
      </trkpt>
      <trkpt lat="47.82709" lon="7.10308">
        <ele>629</ele>
        <time>2010-08-10T12:04:26Z</time>
      </trkpt>
      <trkpt lat="47.82662" lon="7.10341">
        <ele>615</ele>
        <time>2010-08-10T12:04:36Z</time>
      </trkpt>
      <trkpt lat="47.82653" lon="7.10366">
        <ele>607</ele>
        <time>2010-08-10T12:04:41Z</time>
      </trkpt>
      <trkpt lat="47.82595" lon="7.10383">
        <ele>588</ele>
        <time>2010-08-10T12:05:05Z</time>
      </trkpt>
      <trkpt lat="47.82434" lon="7.10329">
        <ele>586</ele>
        <time>2010-08-10T12:05:46Z</time>
      </trkpt>
      <trkpt lat="47.82398" lon="7.10321">
        <ele>582</ele>
        <time>2010-08-10T12:05:57Z</time>
      </trkpt>
      <trkpt lat="47.82278" lon="7.1034">
        <ele>584</ele>
        <time>2010-08-10T12:06:23Z</time>
      </trkpt>
      <trkpt lat="47.82214" lon="7.1035">
        <ele>583</ele>
        <time>2010-08-10T12:06:38Z</time>
      </trkpt>
      <trkpt lat="47.82111" lon="7.10383">
        <ele>577</ele>
        <time>2010-08-10T12:06:54Z</time>
      </trkpt>
      <trkpt lat="47.82072" lon="7.1036">
        <ele>571</ele>
        <time>2010-08-10T12:07:01Z</time>
      </trkpt>
      <trkpt lat="47.82017" lon="7.1027">
        <ele>567</ele>
        <time>2010-08-10T12:07:09Z</time>
      </trkpt>
      <trkpt lat="47.81912" lon="7.10087">
        <ele>554</ele>
        <time>2010-08-10T12:07:22Z</time>
      </trkpt>
      <trkpt lat="47.81891" lon="7.09899">
        <ele>536</ele>
        <time>2010-08-10T12:07:40Z</time>
      </trkpt>
      <trkpt lat="47.81849" lon="7.10043">
        <ele>521</ele>
        <time>2010-08-10T12:07:56Z</time>
      </trkpt>
      <trkpt lat="47.81839" lon="7.10118">
        <ele>510</ele>
        <time>2010-08-10T12:08:05Z</time>
      </trkpt>
      <trkpt lat="47.81824" lon="7.0997">
        <ele>495</ele>
        <time>2010-08-10T12:08:25Z</time>
      </trkpt>
      <trkpt lat="47.81822" lon="7.09971">
        <ele>492</ele>
        <time>2010-08-10T12:08:28Z</time>
      </trkpt>
      <trkpt lat="47.8177" lon="7.10129">
        <ele>476</ele>
        <time>2010-08-10T12:08:50Z</time>
      </trkpt>
      <trkpt lat="47.81759" lon="7.10177">
        <ele>470</ele>
        <time>2010-08-10T12:08:57Z</time>
      </trkpt>
      <trkpt lat="47.81681" lon="7.10182">
        <ele>440</ele>
        <time>2010-08-10T12:09:34Z</time>
      </trkpt>
      <trkpt lat="47.81633" lon="7.10214">
        <ele>432</ele>
        <time>2010-08-10T12:09:47Z</time>
      </trkpt>
      <trkpt lat="47.81601" lon="7.10121">
        <ele>421</ele>
        <time>2010-08-10T12:10:07Z</time>
      </trkpt>
      <trkpt lat="47.81593" lon="7.10112">
        <ele>423</ele>
        <time>2010-08-10T12:10:16Z</time>
      </trkpt>
      <trkpt lat="47.8157" lon="7.10089">
        <ele>423</ele>
        <time>2010-08-10T12:10:26Z</time>
      </trkpt>
      <trkpt lat="47.81554" lon="7.10081">
        <ele>424</ele>
        <time>2010-08-10T12:10:30Z</time>
      </trkpt>
      <trkpt lat="47.81539" lon="7.10124">
        <ele>424</ele>
        <time>2010-08-10T12:10:43Z</time>
      </trkpt>
      <trkpt lat="47.8153" lon="7.10152">
        <ele>419</ele>
        <time>2010-08-10T12:10:50Z</time>
      </trkpt>
      <trkpt lat="47.81504" lon="7.1018">
        <ele>414</ele>
        <time>2010-08-10T12:10:58Z</time>
      </trkpt>
      <trkpt lat="47.81476" lon="7.10187">
        <ele>414</ele>
        <time>2010-08-10T12:11:10Z</time>
      </trkpt>
      <trkpt lat="47.81446" lon="7.10149">
        <ele>418</ele>
        <time>2010-08-10T12:11:41Z</time>
      </trkpt>
      <trkpt lat="47.81453" lon="7.10178">
        <ele>414</ele>
        <time>2010-08-10T12:12:10Z</time>
      </trkpt>
      <trkpt lat="47.81429" lon="7.10156">
        <ele>414</ele>
        <time>2010-08-10T12:12:48Z</time>
      </trkpt>
      <trkpt lat="47.81436" lon="7.10147">
        <ele>415</ele>
        <time>2010-08-10T12:16:30Z</time>
      </trkpt>
      <trkpt lat="47.81426" lon="7.10141">
        <ele>412</ele>
        <time>2010-08-10T12:16:41Z</time>
      </trkpt>
      <trkpt lat="47.81417" lon="7.10166">
        <ele>407</ele>
        <time>2010-08-10T12:16:48Z</time>
      </trkpt>
      <trkpt lat="47.81407" lon="7.10144">
        <ele>402</ele>
        <time>2010-08-10T12:16:56Z</time>
      </trkpt>
      <trkpt lat="47.81395" lon="7.10235">
        <ele>389</ele>
        <time>2010-08-10T12:17:21Z</time>
      </trkpt>
      <trkpt lat="47.81433" lon="7.10292">
        <ele>380</ele>
        <time>2010-08-10T12:17:36Z</time>
      </trkpt>
      <trkpt lat="47.81443" lon="7.10332">
        <ele>372</ele>
        <time>2010-08-10T12:17:45Z</time>
      </trkpt>
      <trkpt lat="47.81398" lon="7.10375">
        <ele>361</ele>
        <time>2010-08-10T12:18:01Z</time>
      </trkpt>
      <trkpt lat="47.81358" lon="7.10379">
        <ele>356</ele>
        <time>2010-08-10T12:18:10Z</time>
      </trkpt>
      <trkpt lat="47.81321" lon="7.10463">
        <ele>352</ele>
        <time>2010-08-10T12:18:29Z</time>
      </trkpt>
      <trkpt lat="47.81267" lon="7.10489">
        <ele>347</ele>
        <time>2010-08-10T12:18:41Z</time>
      </trkpt>
      <trkpt lat="47.81159" lon="7.10465">
        <ele>335</ele>
        <time>2010-08-10T12:19:14Z</time>
      </trkpt>
      <trkpt lat="47.81118" lon="7.10441">
        <ele>334</ele>
        <time>2010-08-10T12:19:27Z</time>
      </trkpt>
      <trkpt lat="47.81117" lon="7.10426">
        <ele>336</ele>
        <time>2010-08-10T12:21:16Z</time>
      </trkpt>
      <trkpt lat="47.81068" lon="7.10493">
        <ele>339</ele>
        <time>2010-08-10T12:21:48Z</time>
      </trkpt>
      <trkpt lat="47.81058" lon="7.10486">
        <ele>339</ele>
        <time>2010-08-10T12:21:54Z</time>
      </trkpt>
      <trkpt lat="47.81121" lon="7.10412">
        <ele>337</ele>
        <time>2010-08-10T12:22:34Z</time>
      </trkpt>
      <trkpt lat="47.80793" lon="7.10143">
        <ele>359</ele>
        <time>2010-08-11T07:30:25Z</time>
      </trkpt>
      <trkpt lat="47.80802" lon="7.10167">
        <ele>354</ele>
        <time>2010-08-11T07:31:51Z</time>
      </trkpt>
      <trkpt lat="47.80839" lon="7.1019">
        <ele>351</ele>
        <time>2010-08-11T07:32:05Z</time>
      </trkpt>
      <trkpt lat="47.80883" lon="7.10184">
        <ele>349</ele>
        <time>2010-08-11T07:32:18Z</time>
      </trkpt>
      <trkpt lat="47.80899" lon="7.10084">
        <ele>349</ele>
        <time>2010-08-11T07:32:46Z</time>
      </trkpt>
      <trkpt lat="47.80959" lon="7.10099">
        <ele>349</ele>
        <time>2010-08-11T07:33:10Z</time>
      </trkpt>
      <trkpt lat="47.80968" lon="7.1006">
        <ele>350</ele>
        <time>2010-08-11T07:33:22Z</time>
      </trkpt>
      <trkpt lat="47.80924" lon="7.10006">
        <ele>360</ele>
        <time>2010-08-11T07:34:02Z</time>
      </trkpt>
      <trkpt lat="47.8084" lon="7.09942">
        <ele>376</ele>
        <time>2010-08-11T07:35:16Z</time>
      </trkpt>
      <trkpt lat="47.80761" lon="7.09884">
        <ele>383</ele>
        <time>2010-08-11T07:36:02Z</time>
      </trkpt>
      <trkpt lat="47.80714" lon="7.09797">
        <ele>389</ele>
        <time>2010-08-11T07:36:42Z</time>
      </trkpt>
      <trkpt lat="47.80697" lon="7.09714">
        <ele>399</ele>
        <time>2010-08-11T07:37:21Z</time>
      </trkpt>
      <trkpt lat="47.80662" lon="7.09535">
        <ele>409</ele>
        <time>2010-08-11T07:38:25Z</time>
      </trkpt>
      <trkpt lat="47.80667" lon="7.09495">
        <ele>416</ele>
        <time>2010-08-11T07:38:41Z</time>
      </trkpt>
      <trkpt lat="47.80719" lon="7.09286">
        <ele>436</ele>
        <time>2010-08-11T07:40:34Z</time>
      </trkpt>
      <trkpt lat="47.80768" lon="7.0914">
        <ele>437</ele>
        <time>2010-08-11T07:41:17Z</time>
      </trkpt>
      <trkpt lat="47.80842" lon="7.09009">
        <ele>459</ele>
        <time>2010-08-11T07:42:33Z</time>
      </trkpt>
      <trkpt lat="47.80897" lon="7.08946">
        <ele>477</ele>
        <time>2010-08-11T07:43:19Z</time>
      </trkpt>
      <trkpt lat="47.80958" lon="7.08925">
        <ele>492</ele>
        <time>2010-08-11T07:44:13Z</time>
      </trkpt>
      <trkpt lat="47.80972" lon="7.08954">
        <ele>490</ele>
        <time>2010-08-11T07:44:29Z</time>
      </trkpt>
      <trkpt lat="47.80993" lon="7.08937">
        <ele>493</ele>
        <time>2010-08-11T07:44:47Z</time>
      </trkpt>
      <trkpt lat="47.81005" lon="7.08923">
        <ele>495</ele>
        <time>2010-08-11T07:44:58Z</time>
      </trkpt>
      <trkpt lat="47.81054" lon="7.08817">
        <ele>497</ele>
        <time>2010-08-11T07:45:36Z</time>
      </trkpt>
      <trkpt lat="47.81097" lon="7.08648">
        <ele>499</ele>
        <time>2010-08-11T07:46:23Z</time>
      </trkpt>
      <trkpt lat="47.81103" lon="7.08611">
        <ele>494</ele>
        <time>2010-08-11T07:46:36Z</time>
      </trkpt>
      <trkpt lat="47.81096" lon="7.08451">
        <ele>509</ele>
        <time>2010-08-11T07:47:55Z</time>
      </trkpt>
      <trkpt lat="47.8106" lon="7.08402">
        <ele>507</ele>
        <time>2010-08-11T07:48:28Z</time>
      </trkpt>
      <trkpt lat="47.80999" lon="7.08392">
        <ele>511</ele>
        <time>2010-08-11T07:48:56Z</time>
      </trkpt>
      <trkpt lat="47.80986" lon="7.08365">
        <ele>511</ele>
        <time>2010-08-11T07:49:08Z</time>
      </trkpt>
      <trkpt lat="47.81019" lon="7.08051">
        <ele>531</ele>
        <time>2010-08-11T07:50:31Z</time>
      </trkpt>
      <trkpt lat="47.8102" lon="7.0798">
        <ele>536</ele>
        <time>2010-08-11T07:50:48Z</time>
      </trkpt>
      <trkpt lat="47.81003" lon="7.07916">
        <ele>542</ele>
        <time>2010-08-11T07:51:05Z</time>
      </trkpt>
      <trkpt lat="47.80977" lon="7.07759">
        <ele>547</ele>
        <time>2010-08-11T07:51:43Z</time>
      </trkpt>
      <trkpt lat="47.80927" lon="7.07592">
        <ele>547</ele>
        <time>2010-08-11T07:52:14Z</time>
      </trkpt>
      <trkpt lat="47.80942" lon="7.07552">
        <ele>545</ele>
        <time>2010-08-11T07:52:23Z</time>
      </trkpt>
      <trkpt lat="47.8113" lon="7.0757">
        <ele>553</ele>
        <time>2010-08-11T07:53:06Z</time>
      </trkpt>
      <trkpt lat="47.8117" lon="7.07554">
        <ele>554</ele>
        <time>2010-08-11T07:53:16Z</time>
      </trkpt>
      <trkpt lat="47.81184" lon="7.07496">
        <ele>558</ele>
        <time>2010-08-11T07:53:28Z</time>
      </trkpt>
      <trkpt lat="47.81162" lon="7.0745">
        <ele>565</ele>
        <time>2010-08-11T07:53:42Z</time>
      </trkpt>
      <trkpt lat="47.81141" lon="7.0739">
        <ele>572</ele>
        <time>2010-08-11T07:54:01Z</time>
      </trkpt>
      <trkpt lat="47.81116" lon="7.07332">
        <ele>576</ele>
        <time>2010-08-11T07:54:19Z</time>
      </trkpt>
      <trkpt lat="47.81112" lon="7.07197">
        <ele>585</ele>
        <time>2010-08-11T07:54:53Z</time>
      </trkpt>
      <trkpt lat="47.81131" lon="7.07066">
        <ele>584</ele>
        <time>2010-08-11T07:55:26Z</time>
      </trkpt>
      <trkpt lat="47.8116" lon="7.07027">
        <ele>579</ele>
        <time>2010-08-11T07:55:41Z</time>
      </trkpt>
      <trkpt lat="47.81218" lon="7.0699">
        <ele>580</ele>
        <time>2010-08-11T07:56:04Z</time>
      </trkpt>
      <trkpt lat="47.81258" lon="7.06958">
        <ele>574</ele>
        <time>2010-08-11T07:56:22Z</time>
      </trkpt>
      <trkpt lat="47.81272" lon="7.06879">
        <ele>575</ele>
        <time>2010-08-11T07:56:40Z</time>
      </trkpt>
      <trkpt lat="47.81285" lon="7.0683">
        <ele>573</ele>
        <time>2010-08-11T07:56:53Z</time>
      </trkpt>
      <trkpt lat="47.81309" lon="7.06788">
        <ele>571</ele>
        <time>2010-08-11T07:57:07Z</time>
      </trkpt>
      <trkpt lat="47.8139" lon="7.0671">
        <ele>579</ele>
        <time>2010-08-11T07:57:44Z</time>
      </trkpt>
      <trkpt lat="47.81511" lon="7.06677">
        <ele>611</ele>
        <time>2010-08-11T07:58:24Z</time>
      </trkpt>
      <trkpt lat="47.81551" lon="7.06617">
        <ele>617</ele>
        <time>2010-08-11T07:58:35Z</time>
      </trkpt>
      <trkpt lat="47.81564" lon="7.06563">
        <ele>622</ele>
        <time>2010-08-11T07:58:45Z</time>
      </trkpt>
      <trkpt lat="47.8157" lon="7.06515">
        <ele>625</ele>
        <time>2010-08-11T07:58:53Z</time>
      </trkpt>
      <trkpt lat="47.8157" lon="7.06456">
        <ele>626</ele>
        <time>2010-08-11T07:59:02Z</time>
      </trkpt>
      <trkpt lat="47.8149" lon="7.06178">
        <ele>647</ele>
        <time>2010-08-11T07:59:49Z</time>
      </trkpt>
      <trkpt lat="47.81434" lon="7.05948">
        <ele>657</ele>
        <time>2010-08-11T08:00:24Z</time>
      </trkpt>
      <trkpt lat="47.8145" lon="7.05866">
        <ele>661</ele>
        <time>2010-08-11T08:00:41Z</time>
      </trkpt>
      <trkpt lat="47.81455" lon="7.05835">
        <ele>658</ele>
        <time>2010-08-11T08:00:47Z</time>
      </trkpt>
      <trkpt lat="47.81375" lon="7.05783">
        <ele>642</ele>
        <time>2010-08-11T08:01:51Z</time>
      </trkpt>
      <trkpt lat="47.8135" lon="7.05788">
        <ele>649</ele>
        <time>2010-08-11T08:02:13Z</time>
      </trkpt>
      <trkpt lat="47.81313" lon="7.05807">
        <ele>652</ele>
        <time>2010-08-11T08:02:38Z</time>
      </trkpt>
      <trkpt lat="47.81341" lon="7.05696">
        <ele>661</ele>
        <time>2010-08-11T08:03:41Z</time>
      </trkpt>
      <trkpt lat="47.81372" lon="7.05611">
        <ele>664</ele>
        <time>2010-08-11T08:04:21Z</time>
      </trkpt>
      <trkpt lat="47.81375" lon="7.05543">
        <ele>666</ele>
        <time>2010-08-11T08:05:07Z</time>
      </trkpt>
      <trkpt lat="47.81355" lon="7.05491">
        <ele>677</ele>
        <time>2010-08-11T08:05:58Z</time>
      </trkpt>
      <trkpt lat="47.81283" lon="7.05347">
        <ele>685</ele>
        <time>2010-08-11T08:07:32Z</time>
      </trkpt>
      <trkpt lat="47.81271" lon="7.05293">
        <ele>692</ele>
        <time>2010-08-11T08:08:07Z</time>
      </trkpt>
      <trkpt lat="47.81272" lon="7.05284">
        <ele>693</ele>
        <time>2010-08-11T08:08:15Z</time>
      </trkpt>
      <trkpt lat="47.81265" lon="7.05269">
        <ele>695</ele>
        <time>2010-08-11T08:08:31Z</time>
      </trkpt>
      <trkpt lat="47.81245" lon="7.0519">
        <ele>700</ele>
        <time>2010-08-11T08:09:15Z</time>
      </trkpt>
      <trkpt lat="47.81069" lon="7.04934">
        <ele>701</ele>
        <time>2010-08-11T08:11:41Z</time>
      </trkpt>
      <trkpt lat="47.80926" lon="7.04845">
        <ele>723</ele>
        <time>2010-08-11T08:13:07Z</time>
      </trkpt>
      <trkpt lat="47.80902" lon="7.04701">
        <ele>740</ele>
        <time>2010-08-11T08:14:40Z</time>
      </trkpt>
      <trkpt lat="47.80842" lon="7.04617">
        <ele>746</ele>
        <time>2010-08-11T08:15:43Z</time>
      </trkpt>
      <trkpt lat="47.80828" lon="7.04624">
        <ele>751</ele>
        <time>2010-08-11T08:16:34Z</time>
      </trkpt>
      <trkpt lat="47.80782" lon="7.04599">
        <ele>754</ele>
        <time>2010-08-11T08:17:20Z</time>
      </trkpt>
      <trkpt lat="47.80759" lon="7.04588">
        <ele>753</ele>
        <time>2010-08-11T08:17:39Z</time>
      </trkpt>
      <trkpt lat="47.80743" lon="7.04502">
        <ele>757</ele>
        <time>2010-08-11T08:18:40Z</time>
      </trkpt>
      <trkpt lat="47.8073" lon="7.04476">
        <ele>758</ele>
        <time>2010-08-11T08:18:50Z</time>
      </trkpt>
      <trkpt lat="47.8066" lon="7.04282">
        <ele>747</ele>
        <time>2010-08-11T08:19:42Z</time>
      </trkpt>
      <trkpt lat="47.80659" lon="7.0425">
        <ele>747</ele>
        <time>2010-08-11T08:19:53Z</time>
      </trkpt>
      <trkpt lat="47.807" lon="7.04218">
        <ele>754</ele>
        <time>2010-08-11T08:20:45Z</time>
      </trkpt>
      <trkpt lat="47.80733" lon="7.04151">
        <ele>763</ele>
        <time>2010-08-11T08:21:24Z</time>
      </trkpt>
      <trkpt lat="47.80784" lon="7.04068">
        <ele>770</ele>
        <time>2010-08-11T08:22:08Z</time>
      </trkpt>
      <trkpt lat="47.8084" lon="7.04022">
        <ele>783</ele>
        <time>2010-08-11T08:22:53Z</time>
      </trkpt>
      <trkpt lat="47.80846" lon="7.03896">
        <ele>781</ele>
        <time>2010-08-11T08:23:50Z</time>
      </trkpt>
      <trkpt lat="47.80889" lon="7.03797">
        <ele>793</ele>
        <time>2010-08-11T08:24:40Z</time>
      </trkpt>
      <trkpt lat="47.8093" lon="7.03768">
        <ele>803</ele>
        <time>2010-08-11T08:25:12Z</time>
      </trkpt>
      <trkpt lat="47.80975" lon="7.03766">
        <ele>820</ele>
        <time>2010-08-11T08:26:06Z</time>
      </trkpt>
      <trkpt lat="47.81031" lon="7.03759">
        <ele>828</ele>
        <time>2010-08-11T08:27:09Z</time>
      </trkpt>
      <trkpt lat="47.81046" lon="7.03727">
        <ele>832</ele>
        <time>2010-08-11T08:27:37Z</time>
      </trkpt>
      <trkpt lat="47.81056" lon="7.03707">
        <ele>830</ele>
        <time>2010-08-11T08:27:50Z</time>
      </trkpt>
      <trkpt lat="47.81087" lon="7.03617">
        <ele>830</ele>
        <time>2010-08-11T08:28:48Z</time>
      </trkpt>
      <trkpt lat="47.81127" lon="7.03582">
        <ele>836</ele>
        <time>2010-08-11T08:29:20Z</time>
      </trkpt>
      <trkpt lat="47.81132" lon="7.03559">
        <ele>841</ele>
        <time>2010-08-11T08:29:32Z</time>
      </trkpt>
      <trkpt lat="47.81138" lon="7.03523">
        <ele>843</ele>
        <time>2010-08-11T08:29:47Z</time>
      </trkpt>
      <trkpt lat="47.81156" lon="7.03479">
        <ele>843</ele>
        <time>2010-08-11T08:30:07Z</time>
      </trkpt>
      <trkpt lat="47.8116" lon="7.03442">
        <ele>849</ele>
        <time>2010-08-11T08:30:21Z</time>
      </trkpt>
      <trkpt lat="47.8117" lon="7.03403">
        <ele>850</ele>
        <time>2010-08-11T08:30:32Z</time>
      </trkpt>
      <trkpt lat="47.81166" lon="7.03334">
        <ele>866</ele>
        <time>2010-08-11T08:32:21Z</time>
      </trkpt>
      <trkpt lat="47.81168" lon="7.033">
        <ele>869</ele>
        <time>2010-08-11T08:32:42Z</time>
      </trkpt>
      <trkpt lat="47.81184" lon="7.03263">
        <ele>873</ele>
        <time>2010-08-11T08:33:15Z</time>
      </trkpt>
      <trkpt lat="47.81237" lon="7.03238">
        <ele>880</ele>
        <time>2010-08-11T08:33:49Z</time>
      </trkpt>
      <trkpt lat="47.81347" lon="7.03234">
        <ele>901</ele>
        <time>2010-08-11T08:34:55Z</time>
      </trkpt>
      <trkpt lat="47.81488" lon="7.03221">
        <ele>920</ele>
        <time>2010-08-11T08:36:27Z</time>
      </trkpt>
      <trkpt lat="47.8155" lon="7.0315">
        <ele>939</ele>
        <time>2010-08-11T08:37:14Z</time>
      </trkpt>
      <trkpt lat="47.81576" lon="7.03093">
        <ele>952</ele>
        <time>2010-08-11T08:37:47Z</time>
      </trkpt>
      <trkpt lat="47.81588" lon="7.03056">
        <ele>958</ele>
        <time>2010-08-11T08:38:06Z</time>
      </trkpt>
      <trkpt lat="47.81614" lon="7.02986">
        <ele>963</ele>
        <time>2010-08-11T08:38:50Z</time>
      </trkpt>
      <trkpt lat="47.81626" lon="7.02924">
        <ele>971</ele>
        <time>2010-08-11T08:39:21Z</time>
      </trkpt>
      <trkpt lat="47.81606" lon="7.02891">
        <ele>985</ele>
        <time>2010-08-11T08:40:06Z</time>
      </trkpt>
      <trkpt lat="47.81587" lon="7.02863">
        <ele>989</ele>
        <time>2010-08-11T08:40:21Z</time>
      </trkpt>
      <trkpt lat="47.81529" lon="7.02779">
        <ele>977</ele>
        <time>2010-08-11T08:41:54Z</time>
      </trkpt>
      <trkpt lat="47.81502" lon="7.02711">
        <ele>982</ele>
        <time>2010-08-11T08:42:51Z</time>
      </trkpt>
      <trkpt lat="47.81499" lon="7.0263">
        <ele>992</ele>
        <time>2010-08-11T08:44:02Z</time>
      </trkpt>
      <trkpt lat="47.81521" lon="7.02587">
        <ele>995</ele>
        <time>2010-08-11T08:45:04Z</time>
      </trkpt>
      <trkpt lat="47.81627" lon="7.02471">
        <ele>1026</ele>
        <time>2010-08-11T08:46:57Z</time>
      </trkpt>
      <trkpt lat="47.81668" lon="7.02456">
        <ele>1039</ele>
        <time>2010-08-11T08:47:30Z</time>
      </trkpt>
      <trkpt lat="47.81735" lon="7.02446">
        <ele>1056</ele>
        <time>2010-08-11T08:48:40Z</time>
      </trkpt>
      <trkpt lat="47.81871" lon="7.02457">
        <ele>1087</ele>
        <time>2010-08-11T08:51:03Z</time>
      </trkpt>
      <trkpt lat="47.81887" lon="7.02462">
        <ele>1087</ele>
        <time>2010-08-11T08:51:12Z</time>
      </trkpt>
      <trkpt lat="47.81923" lon="7.02473">
        <ele>1083</ele>
        <time>2010-08-11T08:51:59Z</time>
      </trkpt>
      <trkpt lat="47.82038" lon="7.02397">
        <ele>1085</ele>
        <time>2010-08-11T08:52:59Z</time>
      </trkpt>
      <trkpt lat="47.82135" lon="7.02252">
        <ele>1089</ele>
        <time>2010-08-11T08:53:56Z</time>
      </trkpt>
      <trkpt lat="47.82225" lon="7.02048">
        <ele>1103</ele>
        <time>2010-08-11T08:55:08Z</time>
      </trkpt>
      <trkpt lat="47.82252" lon="7.02019">
        <ele>1108</ele>
        <time>2010-08-11T08:55:25Z</time>
      </trkpt>
      <trkpt lat="47.82278" lon="7.01993">
        <ele>1108</ele>
        <time>2010-08-11T08:56:00Z</time>
      </trkpt>
      <trkpt lat="47.82235" lon="7.0173">
        <ele>1110</ele>
        <time>2010-08-11T09:01:20Z</time>
      </trkpt>
      <trkpt lat="47.82232" lon="7.015">
        <ele>1114</ele>
        <time>2010-08-11T09:02:13Z</time>
      </trkpt>
      <trkpt lat="47.82257" lon="7.01423">
        <ele>1122</ele>
        <time>2010-08-11T09:03:17Z</time>
      </trkpt>
      <trkpt lat="47.82284" lon="7.01361">
        <ele>1126</ele>
        <time>2010-08-11T09:03:45Z</time>
      </trkpt>
      <trkpt lat="47.82292" lon="7.01306">
        <ele>1132</ele>
        <time>2010-08-11T09:04:06Z</time>
      </trkpt>
      <trkpt lat="47.82317" lon="7.01208">
        <ele>1137</ele>
        <time>2010-08-11T09:04:40Z</time>
      </trkpt>
      <trkpt lat="47.82408" lon="7.00969">
        <ele>1144</ele>
        <time>2010-08-11T09:06:02Z</time>
      </trkpt>
      <trkpt lat="47.82677" lon="7.00625">
        <ele>1170</ele>
        <time>2010-08-11T09:08:25Z</time>
      </trkpt>
      <trkpt lat="47.82741" lon="7.00594">
        <ele>1174</ele>
        <time>2010-08-11T09:09:17Z</time>
      </trkpt>
      <trkpt lat="47.82783" lon="7.00553">
        <ele>1175</ele>
        <time>2010-08-11T09:09:34Z</time>
      </trkpt>
      <trkpt lat="47.82884" lon="7.00509">
        <ele>1184</ele>
        <time>2010-08-11T09:10:12Z</time>
      </trkpt>
      <trkpt lat="47.82912" lon="7.00483">
        <ele>1185</ele>
        <time>2010-08-11T09:10:27Z</time>
      </trkpt>
      <trkpt lat="47.82973" lon="7.00268">
        <ele>1168</ele>
        <time>2010-08-11T09:11:07Z</time>
      </trkpt>
      <trkpt lat="47.83015" lon="7.00168">
        <ele>1169</ele>
        <time>2010-08-11T09:11:34Z</time>
      </trkpt>
      <trkpt lat="47.83043" lon="7.0013">
        <ele>1167</ele>
        <time>2010-08-11T09:12:03Z</time>
      </trkpt>
      <trkpt lat="47.8305" lon="7.00114">
        <ele>1165</ele>
        <time>2010-08-11T09:12:16Z</time>
      </trkpt>
      <trkpt lat="47.83066" lon="7.00076">
        <ele>1160</ele>
        <time>2010-08-11T09:12:53Z</time>
      </trkpt>
      <trkpt lat="47.83071" lon="7.00068">
        <ele>1155</ele>
        <time>2010-08-11T09:13:28Z</time>
      </trkpt>
      <trkpt lat="47.83088" lon="7.00084">
        <ele>1144</ele>
        <time>2010-08-11T09:18:25Z</time>
      </trkpt>
      <trkpt lat="47.83105" lon="6.99949">
        <ele>1126</ele>
        <time>2010-08-11T09:19:38Z</time>
      </trkpt>
      <trkpt lat="47.83185" lon="6.99809">
        <ele>1111</ele>
        <time>2010-08-11T09:20:04Z</time>
      </trkpt>
      <trkpt lat="47.83175" lon="6.99674">
        <ele>1079</ele>
        <time>2010-08-11T09:20:31Z</time>
      </trkpt>
      <trkpt lat="47.83233" lon="6.99549">
        <ele>1067</ele>
        <time>2010-08-11T09:20:52Z</time>
      </trkpt>
      <trkpt lat="47.83388" lon="6.99423">
        <ele>1054</ele>
        <time>2010-08-11T09:21:17Z</time>
      </trkpt>
      <trkpt lat="47.83452" lon="6.99406">
        <ele>1049</ele>
        <time>2010-08-11T09:21:31Z</time>
      </trkpt>
      <trkpt lat="47.83563" lon="6.99197">
        <ele>1023</ele>
        <time>2010-08-11T09:22:02Z</time>
      </trkpt>
      <trkpt lat="47.83599" lon="6.9916">
        <ele>1018</ele>
        <time>2010-08-11T09:22:07Z</time>
      </trkpt>
      <trkpt lat="47.83676" lon="6.99134">
        <ele>1002</ele>
        <time>2010-08-11T09:22:20Z</time>
      </trkpt>
      <trkpt lat="47.83753" lon="6.99072">
        <ele>990</ele>
        <time>2010-08-11T09:22:37Z</time>
      </trkpt>
      <trkpt lat="47.83857" lon="6.99051">
        <ele>985</ele>
        <time>2010-08-11T09:23:07Z</time>
      </trkpt>
      <trkpt lat="47.83969" lon="6.98984">
        <ele>985</ele>
        <time>2010-08-11T09:23:41Z</time>
      </trkpt>
      <trkpt lat="47.84016" lon="6.98937">
        <ele>985</ele>
        <time>2010-08-11T09:23:57Z</time>
      </trkpt>
      <trkpt lat="47.84029" lon="6.98906">
        <ele>986</ele>
        <time>2010-08-11T09:27:25Z</time>
      </trkpt>
      <trkpt lat="47.84033" lon="6.98865">
        <ele>987</ele>
        <time>2010-08-11T09:28:05Z</time>
      </trkpt>
      <trkpt lat="47.84079" lon="6.98809">
        <ele>985</ele>
        <time>2010-08-11T09:28:43Z</time>
      </trkpt>
      <trkpt lat="47.84101" lon="6.98662">
        <ele>979</ele>
        <time>2010-08-11T09:31:05Z</time>
      </trkpt>
      <trkpt lat="47.84148" lon="6.98579">
        <ele>979</ele>
        <time>2010-08-11T09:31:22Z</time>
      </trkpt>
      <trkpt lat="47.84158" lon="6.98534">
        <ele>977</ele>
        <time>2010-08-11T09:31:28Z</time>
      </trkpt>
      <trkpt lat="47.84154" lon="6.98465">
        <ele>974</ele>
        <time>2010-08-11T09:31:35Z</time>
      </trkpt>
      <trkpt lat="47.84117" lon="6.98392">
        <ele>983</ele>
        <time>2010-08-11T09:31:56Z</time>
      </trkpt>
      <trkpt lat="47.84106" lon="6.98192">
        <ele>979</ele>
        <time>2010-08-11T09:32:41Z</time>
      </trkpt>
      <trkpt lat="47.84097" lon="6.98083">
        <ele>970</ele>
        <time>2010-08-11T09:33:00Z</time>
      </trkpt>
      <trkpt lat="47.84153" lon="6.97966">
        <ele>964</ele>
        <time>2010-08-11T09:33:15Z</time>
      </trkpt>
      <trkpt lat="47.84172" lon="6.97852">
        <ele>961</ele>
        <time>2010-08-11T09:33:29Z</time>
      </trkpt>
      <trkpt lat="47.84185" lon="6.97808">
        <ele>955</ele>
        <time>2010-08-11T09:33:54Z</time>
      </trkpt>
      <trkpt lat="47.84178" lon="6.97746">
        <ele>951</ele>
        <time>2010-08-11T09:34:09Z</time>
      </trkpt>
      <trkpt lat="47.84197" lon="6.97617">
        <ele>959</ele>
        <time>2010-08-11T09:34:50Z</time>
      </trkpt>
      <trkpt lat="47.84135" lon="6.97334">
        <ele>984</ele>
        <time>2010-08-11T09:36:25Z</time>
      </trkpt>
      <trkpt lat="47.84122" lon="6.97225">
        <ele>992</ele>
        <time>2010-08-11T09:36:50Z</time>
      </trkpt>
      <trkpt lat="47.84111" lon="6.97151">
        <ele>995</ele>
        <time>2010-08-11T09:37:05Z</time>
      </trkpt>
      <trkpt lat="47.8412" lon="6.96931">
        <ele>996</ele>
        <time>2010-08-11T09:38:15Z</time>
      </trkpt>
      <trkpt lat="47.84142" lon="6.96804">
        <ele>1002</ele>
        <time>2010-08-11T09:38:58Z</time>
      </trkpt>
      <trkpt lat="47.84191" lon="6.96652">
        <ele>1004</ele>
        <time>2010-08-11T09:39:39Z</time>
      </trkpt>
      <trkpt lat="47.8421" lon="6.96624">
        <ele>1002</ele>
        <time>2010-08-11T09:39:45Z</time>
      </trkpt>
      <trkpt lat="47.84338" lon="6.96534">
        <ele>1012</ele>
        <time>2010-08-11T09:40:34Z</time>
      </trkpt>
      <trkpt lat="47.84425" lon="6.96291">
        <ele>1039</ele>
        <time>2010-08-11T09:42:16Z</time>
      </trkpt>
      <trkpt lat="47.84495" lon="6.96118">
        <ele>1048</ele>
        <time>2010-08-11T09:43:34Z</time>
      </trkpt>
      <trkpt lat="47.84523" lon="6.9609">
        <ele>1055</ele>
        <time>2010-08-11T09:44:01Z</time>
      </trkpt>
      <trkpt lat="47.84579" lon="6.96053">
        <ele>1048</ele>
        <time>2010-08-11T09:44:41Z</time>
      </trkpt>
      <trkpt lat="47.8464" lon="6.95934">
        <ele>1048</ele>
        <time>2010-08-11T09:45:37Z</time>
      </trkpt>
      <trkpt lat="47.84748" lon="6.95885">
        <ele>1057</ele>
        <time>2010-08-11T09:47:04Z</time>
      </trkpt>
      <trkpt lat="47.84672" lon="6.95606">
        <ele>1077</ele>
        <time>2010-08-11T09:49:51Z</time>
      </trkpt>
      <trkpt lat="47.84678" lon="6.95534">
        <ele>1077</ele>
        <time>2010-08-11T09:50:09Z</time>
      </trkpt>
      <trkpt lat="47.8467" lon="6.95455">
        <ele>1069</ele>
        <time>2010-08-11T09:50:29Z</time>
      </trkpt>
      <trkpt lat="47.84687" lon="6.9527">
        <ele>1060</ele>
        <time>2010-08-11T09:51:14Z</time>
      </trkpt>
      <trkpt lat="47.84728" lon="6.95105">
        <ele>1069</ele>
        <time>2010-08-11T09:51:52Z</time>
      </trkpt>
      <trkpt lat="47.84753" lon="6.95043">
        <ele>1063</ele>
        <time>2010-08-11T09:52:28Z</time>
      </trkpt>
      <trkpt lat="47.84757" lon="6.94997">
        <ele>1066</ele>
        <time>2010-08-11T09:52:41Z</time>
      </trkpt>
      <trkpt lat="47.84759" lon="6.94979">
        <ele>1063</ele>
        <time>2010-08-11T09:52:46Z</time>
      </trkpt>
      <trkpt lat="47.84745" lon="6.94833">
        <ele>1060</ele>
        <time>2010-08-11T09:53:23Z</time>
      </trkpt>
      <trkpt lat="47.8477" lon="6.94771">
        <ele>1058</ele>
        <time>2010-08-11T09:53:55Z</time>
      </trkpt>
      <trkpt lat="47.84791" lon="6.9463">
        <ele>1066</ele>
        <time>2010-08-11T09:55:17Z</time>
      </trkpt>
      <trkpt lat="47.84789" lon="6.94616">
        <ele>1070</ele>
        <time>2010-08-11T09:56:07Z</time>
      </trkpt>
      <trkpt lat="47.84778" lon="6.94629">
        <ele>1073</ele>
        <time>2010-08-11T09:56:25Z</time>
      </trkpt>
      <trkpt lat="47.84769" lon="6.94594">
        <ele>1082</ele>
        <time>2010-08-11T09:57:18Z</time>
      </trkpt>
      <trkpt lat="47.84832" lon="6.94463">
        <ele>1110</ele>
        <time>2010-08-11T09:59:32Z</time>
      </trkpt>
      <trkpt lat="47.84857" lon="6.94447">
        <ele>1112</ele>
        <time>2010-08-11T10:00:06Z</time>
      </trkpt>
      <trkpt lat="47.84882" lon="6.94362">
        <ele>1120</ele>
        <time>2010-08-11T10:00:45Z</time>
      </trkpt>
      <trkpt lat="47.84935" lon="6.94264">
        <ele>1132</ele>
        <time>2010-08-11T10:01:47Z</time>
      </trkpt>
      <trkpt lat="47.85086" lon="6.94169">
        <ele>1151</ele>
        <time>2010-08-11T10:04:40Z</time>
      </trkpt>
      <trkpt lat="47.85091" lon="6.9415">
        <ele>1156</ele>
        <time>2010-08-11T10:05:03Z</time>
      </trkpt>
      <trkpt lat="47.85099" lon="6.94125">
        <ele>1158</ele>
        <time>2010-08-11T10:05:15Z</time>
      </trkpt>
      <trkpt lat="47.85164" lon="6.94042">
        <ele>1181</ele>
        <time>2010-08-11T10:06:47Z</time>
      </trkpt>
      <trkpt lat="47.85168" lon="6.94022">
        <ele>1159</ele>
        <time>2010-08-11T10:07:11Z</time>
      </trkpt>
      <trkpt lat="47.85173" lon="6.93961">
        <ele>1193</ele>
        <time>2010-08-11T10:07:28Z</time>
      </trkpt>
      <trkpt lat="47.85169" lon="6.93928">
        <ele>1195</ele>
        <time>2010-08-11T10:07:38Z</time>
      </trkpt>
      <trkpt lat="47.85131" lon="6.93841">
        <ele>1206</ele>
        <time>2010-08-11T10:08:16Z</time>
      </trkpt>
      <trkpt lat="47.85078" lon="6.93742">
        <ele>1209</ele>
        <time>2010-08-11T10:08:43Z</time>
      </trkpt>
      <trkpt lat="47.84943" lon="6.93444">
        <ele>1197</ele>
        <time>2010-08-11T10:09:51Z</time>
      </trkpt>
      <trkpt lat="47.84925" lon="6.93377">
        <ele>1198</ele>
        <time>2010-08-11T10:10:06Z</time>
      </trkpt>
      <trkpt lat="47.84921" lon="6.93357">
        <ele>1196</ele>
        <time>2010-08-11T10:10:10Z</time>
      </trkpt>
      <trkpt lat="47.84848" lon="6.93214">
        <ele>1187</ele>
        <time>2010-08-11T10:10:35Z</time>
      </trkpt>
      <trkpt lat="47.84842" lon="6.9314">
        <ele>1172</ele>
        <time>2010-08-11T10:10:41Z</time>
      </trkpt>
      <trkpt lat="47.84831" lon="6.93079">
        <ele>1157</ele>
        <time>2010-08-11T10:10:53Z</time>
      </trkpt>
      <trkpt lat="47.84833" lon="6.93042">
        <ele>1151</ele>
        <time>2010-08-11T10:10:56Z</time>
      </trkpt>
      <trkpt lat="47.84846" lon="6.93009">
        <ele>1171</ele>
        <time>2010-08-11T10:11:06Z</time>
      </trkpt>
      <trkpt lat="47.84848" lon="6.92992">
        <ele>1165</ele>
        <time>2010-08-11T10:11:16Z</time>
      </trkpt>
      <trkpt lat="47.84874" lon="6.92865">
        <ele>1143</ele>
        <time>2010-08-11T10:11:39Z</time>
      </trkpt>
      <trkpt lat="47.84856" lon="6.92681">
        <ele>1125</ele>
        <time>2010-08-11T10:12:14Z</time>
      </trkpt>
      <trkpt lat="47.84867" lon="6.92578">
        <ele>1118</ele>
        <time>2010-08-11T10:12:31Z</time>
      </trkpt>
      <trkpt lat="47.8486" lon="6.9255">
        <ele>1114</ele>
        <time>2010-08-11T10:12:37Z</time>
      </trkpt>
      <trkpt lat="47.84835" lon="6.92529">
        <ele>1109</ele>
        <time>2010-08-11T10:12:45Z</time>
      </trkpt>
      <trkpt lat="47.84826" lon="6.92524">
        <ele>1107</ele>
        <time>2010-08-11T10:12:48Z</time>
      </trkpt>
      <trkpt lat="47.84865" lon="6.92513">
        <ele>1093</ele>
        <time>2010-08-11T10:13:14Z</time>
      </trkpt>
      <trkpt lat="47.84884" lon="6.92316">
        <ele>1094</ele>
        <time>2010-08-11T10:14:52Z</time>
      </trkpt>
      <trkpt lat="47.8488" lon="6.92302">
        <ele>1092</ele>
        <time>2010-08-11T10:15:03Z</time>
      </trkpt>
      <trkpt lat="47.84899" lon="6.92234">
        <ele>1087</ele>
        <time>2010-08-11T10:23:50Z</time>
      </trkpt>
      <trkpt lat="47.84889" lon="6.92138">
        <ele>1099</ele>
        <time>2010-08-11T10:24:45Z</time>
      </trkpt>
      <trkpt lat="47.84864" lon="6.9207">
        <ele>1101</ele>
        <time>2010-08-11T10:25:54Z</time>
      </trkpt>
      <trkpt lat="47.84832" lon="6.92044">
        <ele>1105</ele>
        <time>2010-08-11T10:26:30Z</time>
      </trkpt>
      <trkpt lat="47.84821" lon="6.92018">
        <ele>1104</ele>
        <time>2010-08-11T10:26:50Z</time>
      </trkpt>
      <trkpt lat="47.84768" lon="6.91994">
        <ele>1108</ele>
        <time>2010-08-11T10:27:50Z</time>
      </trkpt>
      <trkpt lat="47.84754" lon="6.91931">
        <ele>1125</ele>
        <time>2010-08-11T10:28:33Z</time>
      </trkpt>
      <trkpt lat="47.8471" lon="6.9191">
        <ele>1132</ele>
        <time>2010-08-11T10:29:00Z</time>
      </trkpt>
      <trkpt lat="47.84705" lon="6.91881">
        <ele>1137</ele>
        <time>2010-08-11T10:29:13Z</time>
      </trkpt>
      <trkpt lat="47.84685" lon="6.91866">
        <ele>1142</ele>
        <time>2010-08-11T10:29:24Z</time>
      </trkpt>
      <trkpt lat="47.84668" lon="6.91876">
        <ele>1149</ele>
        <time>2010-08-11T10:29:48Z</time>
      </trkpt>
      <trkpt lat="47.84657" lon="6.91869">
        <ele>1150</ele>
        <time>2010-08-11T10:30:03Z</time>
      </trkpt>
      <trkpt lat="47.84604" lon="6.91835">
        <ele>1146</ele>
        <time>2010-08-11T10:30:23Z</time>
      </trkpt>
      <trkpt lat="47.84586" lon="6.91834">
        <ele>1145</ele>
        <time>2010-08-11T10:30:27Z</time>
      </trkpt>
      <trkpt lat="47.84494" lon="6.91892">
        <ele>1155</ele>
        <time>2010-08-11T10:31:37Z</time>
      </trkpt>
      <trkpt lat="47.84459" lon="6.919">
        <ele>1151</ele>
        <time>2010-08-11T10:31:54Z</time>
      </trkpt>
      <trkpt lat="47.84449" lon="6.91846">
        <ele>1148</ele>
        <time>2010-08-11T10:32:15Z</time>
      </trkpt>
      <trkpt lat="47.84305" lon="6.91607">
        <ele>1128</ele>
        <time>2010-08-11T10:33:07Z</time>
      </trkpt>
      <trkpt lat="47.84254" lon="6.91372">
        <ele>1126</ele>
        <time>2010-08-11T10:33:46Z</time>
      </trkpt>
      <trkpt lat="47.84255" lon="6.9132">
        <ele>1125</ele>
        <time>2010-08-11T10:33:56Z</time>
      </trkpt>
    </trkseg>
  </trk>
</gpx>